Terminal Aerodrome Forecast
Issued by NWS Pocatello, ID

Home | Current Version | Previous Version | Text Only | Print | Product List | Glossary On
Versions: 1 2 3 4 5 6 7 8 9 10 11 12 13 14 15 16 17 18 19
062
FTUS45 KPIH 222332
TAFPIH
TAF
KPIH 222332Z 2300/2324 01005KT P6SM VCSH SCT040 BKN100
     FM230300 04006KT 3SM -SN BR SCT009 BKN025
     FM230600 18010G15KT P6SM VCSH SCT025 BKN060
     FM231800 28012G20KT 6SM -SHSN SCT009 BKN025=

USA.gov is the U.S. government's official web portal to all federal, state and local government web resources and services.